sensor_id;sensor_type;location;lat;lon;timestamp;P1;durP1;ratioP1;P2;durP2;ratioP2
7531;SDS011;3807;49.030;8.714;2022-07-17T00:01:57;5.93;;;2.40;;
7531;SDS011;3807;49.030;8.714;2022-07-17T00:04:23;4.40;;;2.55;;
7531;SDS011;3807;49.030;8.714;2022-07-17T00:06:48;4.28;;;2.50;;
7531;SDS011;3807;49.030;8.714;2022-07-17T00:09:14;2.47;;;2.28;;
7531;SDS011;3807;49.030;8.714;2022-07-17T00:11:39;4.50;;;2.45;;
7531;SDS011;3807;49.030;8.714;2022-07-17T00:14:05;4.68;;;2.40;;
7531;SDS011;3807;49.030;8.714;2022-07-17T00:16:30;4.62;;;2.50;;
7531;SDS011;3807;49.030;8.714;2022-07-17T00:18:56;4.30;;;2.60;;
7531;SDS011;3807;49.030;8.714;2022-07-17T00:21:21;4.55;;;2.55;;
7531;SDS011;3807;49.030;8.714;2022-07-17T00:23:47;4.30;;;2.30;;
7531;SDS011;3807;49.030;8.714;2022-07-17T00:26:12;2.47;;;2.12;;
7531;SDS011;3807;49.030;8.714;2022-07-17T00:28:37;2.65;;;2.00;;
7531;SDS011;3807;49.030;8.714;2022-07-17T00:31:03;4.40;;;2.58;;
7531;SDS011;3807;49.030;8.714;2022-07-17T00:33:28;4.25;;;2.85;;
7531;SDS011;3807;49.030;8.714;2022-07-17T00:35:54;6.12;;;2.58;;
7531;SDS011;3807;49.030;8.714;2022-07-17T00:38:19;6.65;;;2.67;;
7531;SDS011;3807;49.030;8.714;2022-07-17T00:40:44;7.00;;;2.62;;
7531;SDS011;3807;49.030;8.714;2022-07-17T00:43:10;5.32;;;2.78;;
7531;SDS011;3807;49.030;8.714;2022-07-17T00:45:35;3.60;;;2.30;;
7531;SDS011;3807;49.030;8.714;2022-07-17T00:48:02;3.03;;;2.12;;
7531;SDS011;3807;49.030;8.714;2022-07-17T00:50:36;3.30;;;2.30;;
7531;SDS011;3807;49.030;8.714;2022-07-17T00:53:04;5.03;;;2.70;;
7531;SDS011;3807;49.030;8.714;2022-07-17T00:55:30;4.12;;;2.65;;
7531;SDS011;3807;49.030;8.714;2022-07-17T00:57:56;3.72;;;2.70;;
7531;SDS011;3807;49.030;8.714;2022-07-17T01:00:25;3.20;;;2.40;;
7531;SDS011;3807;49.030;8.714;2022-07-17T01:02:51;4.68;;;2.60;;
7531;SDS011;3807;49.030;8.714;2022-07-17T01:05:19;4.37;;;2.53;;
7531;SDS011;3807;49.030;8.714;2022-07-17T01:07:46;3.53;;;2.72;;
7531;SDS011;3807;49.030;8.714;2022-07-17T01:10:12;4.72;;;2.72;;
7531;SDS011;3807;49.030;8.714;2022-07-17T01:12:38;6.90;;;2.50;;
7531;SDS011;3807;49.030;8.714;2022-07-17T01:15:06;3.72;;;2.47;;
7531;SDS011;3807;49.030;8.714;2022-07-17T01:17:33;3.25;;;2.37;;
7531;SDS011;3807;49.030;8.714;2022-07-17T01:20:01;6.90;;;2.28;;
7531;SDS011;3807;49.030;8.714;2022-07-17T01:22:30;5.20;;;2.70;;
7531;SDS011;3807;49.030;8.714;2022-07-17T01:24:55;6.55;;;3.20;;
7531;SDS011;3807;49.030;8.714;2022-07-17T01:27:20;5.75;;;2.55;;
7531;SDS011;3807;49.030;8.714;2022-07-17T01:29:46;13.40;;;2.85;;
7531;SDS011;3807;49.030;8.714;2022-07-17T01:32:11;2.78;;;2.40;;
7531;SDS011;3807;49.030;8.714;2022-07-17T01:34:37;5.20;;;2.55;;
7531;SDS011;3807;49.030;8.714;2022-07-17T01:37:02;6.87;;;2.72;;
7531;SDS011;3807;49.030;8.714;2022-07-17T01:39:28;7.43;;;2.60;;
7531;SDS011;3807;49.030;8.714;2022-07-17T01:42:11;3.80;;;2.47;;
7531;SDS011;3807;49.030;8.714;2022-07-17T01:44:37;2.72;;;2.28;;
7531;SDS011;3807;49.030;8.714;2022-07-17T01:47:02;4.32;;;2.85;;
7531;SDS011;3807;49.030;8.714;2022-07-17T01:49:28;2.92;;;2.58;;
7531;SDS011;3807;49.030;8.714;2022-07-17T01:51:54;5.07;;;2.40;;
7531;SDS011;3807;49.030;8.714;2022-07-17T01:54:22;3.25;;;2.42;;
7531;SDS011;3807;49.030;8.714;2022-07-17T01:56:47;6.18;;;2.75;;
7531;SDS011;3807;49.030;8.714;2022-07-17T01:59:13;7.32;;;2.25;;
7531;SDS011;3807;49.030;8.714;2022-07-17T02:01:38;5.60;;;2.50;;
7531;SDS011;3807;49.030;8.714;2022-07-17T02:04:03;8.23;;;3.30;;
7531;SDS011;3807;49.030;8.714;2022-07-17T02:06:29;5.78;;;2.87;;
7531;SDS011;3807;49.030;8.714;2022-07-17T02:08:54;5.10;;;2.78;;
7531;SDS011;3807;49.030;8.714;2022-07-17T02:11:20;2.62;;;2.42;;
7531;SDS011;3807;49.030;8.714;2022-07-17T02:13:45;3.80;;;3.00;;
7531;SDS011;3807;49.030;8.714;2022-07-17T02:16:10;4.18;;;2.67;;
7531;SDS011;3807;49.030;8.714;2022-07-17T02:18:36;5.80;;;2.65;;
7531;SDS011;3807;49.030;8.714;2022-07-17T02:21:01;2.70;;;2.40;;
7531;SDS011;3807;49.030;8.714;2022-07-17T02:23:27;4.60;;;2.40;;
7531;SDS011;3807;49.030;8.714;2022-07-17T02:25:53;3.05;;;2.55;;
7531;SDS011;3807;49.030;8.714;2022-07-17T02:28:19;4.97;;;3.00;;
7531;SDS011;3807;49.030;8.714;2022-07-17T02:30:45;3.58;;;2.60;;
7531;SDS011;3807;49.030;8.714;2022-07-17T02:33:10;4.93;;;2.80;;
7531;SDS011;3807;49.030;8.714;2022-07-17T02:35:35;3.22;;;2.50;;
7531;SDS011;3807;49.030;8.714;2022-07-17T02:38:01;2.78;;;2.33;;
7531;SDS011;3807;49.030;8.714;2022-07-17T02:40:26;5.45;;;2.62;;
7531;SDS011;3807;49.030;8.714;2022-07-17T02:42:52;6.03;;;2.85;;
7531;SDS011;3807;49.030;8.714;2022-07-17T02:45:17;3.35;;;2.80;;
7531;SDS011;3807;49.030;8.714;2022-07-17T02:47:46;3.78;;;2.67;;
7531;SDS011;3807;49.030;8.714;2022-07-17T02:50:12;4.32;;;2.50;;
7531;SDS011;3807;49.030;8.714;2022-07-17T02:52:37;3.65;;;2.80;;
7531;SDS011;3807;49.030;8.714;2022-07-17T02:55:03;4.65;;;3.00;;
7531;SDS011;3807;49.030;8.714;2022-07-17T02:57:29;2.87;;;2.58;;
7531;SDS011;3807;49.030;8.714;2022-07-17T02:59:54;3.77;;;2.60;;
7531;SDS011;3807;49.030;8.714;2022-07-17T03:02:20;4.97;;;3.03;;
7531;SDS011;3807;49.030;8.714;2022-07-17T03:04:45;3.62;;;2.90;;
7531;SDS011;3807;49.030;8.714;2022-07-17T03:07:10;4.77;;;2.80;;
7531;SDS011;3807;49.030;8.714;2022-07-17T03:09:36;4.75;;;2.35;;
7531;SDS011;3807;49.030;8.714;2022-07-17T03:12:01;6.03;;;2.28;;
7531;SDS011;3807;49.030;8.714;2022-07-17T03:14:27;3.57;;;2.80;;
7531;SDS011;3807;49.030;8.714;2022-07-17T03:16:52;3.00;;;2.53;;
7531;SDS011;3807;49.030;8.714;2022-07-17T03:19:18;3.50;;;2.60;;
7531;SDS011;3807;49.030;8.714;2022-07-17T03:21:44;3.40;;;2.43;;
7531;SDS011;3807;49.030;8.714;2022-07-17T03:24:09;4.67;;;2.90;;
7531;SDS011;3807;49.030;8.714;2022-07-17T03:26:35;3.73;;;2.50;;
7531;SDS011;3807;49.030;8.714;2022-07-17T03:29:01;4.43;;;2.73;;
7531;SDS011;3807;49.030;8.714;2022-07-17T03:31:26;3.47;;;2.90;;
7531;SDS011;3807;49.030;8.714;2022-07-17T03:33:51;4.97;;;2.60;;
7531;SDS011;3807;49.030;8.714;2022-07-17T03:36:17;4.40;;;2.50;;
7531;SDS011;3807;49.030;8.714;2022-07-17T03:38:42;3.70;;;2.90;;
7531;SDS011;3807;49.030;8.714;2022-07-17T03:41:07;8.67;;;2.63;;
7531;SDS011;3807;49.030;8.714;2022-07-17T03:43:33;3.03;;;2.60;;
7531;SDS011;3807;49.030;8.714;2022-07-17T03:45:58;6.03;;;2.30;;
7531;SDS011;3807;49.030;8.714;2022-07-17T03:48:24;5.17;;;2.63;;
7531;SDS011;3807;49.030;8.714;2022-07-17T03:50:49;2.70;;;2.50;;
7531;SDS011;3807;49.030;8.714;2022-07-17T03:53:14;4.60;;;2.83;;
7531;SDS011;3807;49.030;8.714;2022-07-17T03:55:40;8.00;;;2.87;;
7531;SDS011;3807;49.030;8.714;2022-07-17T03:58:05;5.57;;;2.90;;
7531;SDS011;3807;49.030;8.714;2022-07-17T04:00:30;3.50;;;2.70;;
7531;SDS011;3807;49.030;8.714;2022-07-17T04:02:56;4.57;;;2.80;;
7531;SDS011;3807;49.030;8.714;2022-07-17T04:05:21;4.10;;;2.87;;
7531;SDS011;3807;49.030;8.714;2022-07-17T04:07:46;2.70;;;2.50;;
7531;SDS011;3807;49.030;8.714;2022-07-17T04:10:13;5.83;;;3.07;;
7531;SDS011;3807;49.030;8.714;2022-07-17T04:12:40;4.13;;;2.93;;
7531;SDS011;3807;49.030;8.714;2022-07-17T04:15:06;3.33;;;3.00;;
7531;SDS011;3807;49.030;8.714;2022-07-17T04:17:32;4.17;;;2.63;;
7531;SDS011;3807;49.030;8.714;2022-07-17T04:19:57;5.10;;;3.03;;
7531;SDS011;3807;49.030;8.714;2022-07-17T04:22:23;4.00;;;2.97;;
7531;SDS011;3807;49.030;8.714;2022-07-17T04:24:48;6.23;;;3.20;;
7531;SDS011;3807;49.030;8.714;2022-07-17T04:27:14;7.50;;;2.80;;
7531;SDS011;3807;49.030;8.714;2022-07-17T04:29:40;3.77;;;3.37;;
7531;SDS011;3807;49.030;8.714;2022-07-17T04:32:05;4.83;;;2.83;;
7531;SDS011;3807;49.030;8.714;2022-07-17T04:34:31;4.30;;;3.17;;
7531;SDS011;3807;49.030;8.714;2022-07-17T04:37:00;3.13;;;2.80;;
7531;SDS011;3807;49.030;8.714;2022-07-17T04:39:26;3.47;;;3.00;;
7531;SDS011;3807;49.030;8.714;2022-07-17T04:41:51;4.80;;;2.97;;
7531;SDS011;3807;49.030;8.714;2022-07-17T04:44:17;3.47;;;2.70;;
7531;SDS011;3807;49.030;8.714;2022-07-17T04:46:43;5.00;;;2.77;;
7531;SDS011;3807;49.030;8.714;2022-07-17T04:49:09;3.80;;;3.27;;
7531;SDS011;3807;49.030;8.714;2022-07-17T04:51:34;4.43;;;3.23;;
7531;SDS011;3807;49.030;8.714;2022-07-17T04:54:00;8.83;;;3.10;;
7531;SDS011;3807;49.030;8.714;2022-07-17T04:56:25;3.80;;;2.73;;
7531;SDS011;3807;49.030;8.714;2022-07-17T04:58:51;3.73;;;2.97;;
7531;SDS011;3807;49.030;8.714;2022-07-17T05:01:16;4.33;;;2.70;;
7531;SDS011;3807;49.030;8.714;2022-07-17T05:03:41;4.00;;;2.67;;
7531;SDS011;3807;49.030;8.714;2022-07-17T05:06:07;5.13;;;2.83;;
7531;SDS011;3807;49.030;8.714;2022-07-17T05:08:33;4.17;;;2.80;;
7531;SDS011;3807;49.030;8.714;2022-07-17T05:10:59;5.30;;;2.60;;
7531;SDS011;3807;49.030;8.714;2022-07-17T05:13:25;2.50;;;2.30;;
7531;SDS011;3807;49.030;8.714;2022-07-17T05:15:50;2.70;;;2.33;;
7531;SDS011;3807;49.030;8.714;2022-07-17T05:18:16;3.33;;;2.60;;
7531;SDS011;3807;49.030;8.714;2022-07-17T05:20:41;4.53;;;2.57;;
7531;SDS011;3807;49.030;8.714;2022-07-17T05:23:06;3.47;;;2.80;;
7531;SDS011;3807;49.030;8.714;2022-07-17T05:25:32;3.40;;;2.20;;
7531;SDS011;3807;49.030;8.714;2022-07-17T05:27:57;3.87;;;2.10;;
7531;SDS011;3807;49.030;8.714;2022-07-17T05:30:23;2.53;;;2.33;;
7531;SDS011;3807;49.030;8.714;2022-07-17T05:32:48;4.07;;;2.30;;
7531;SDS011;3807;49.030;8.714;2022-07-17T05:35:14;5.63;;;2.40;;
7531;SDS011;3807;49.030;8.714;2022-07-17T05:37:39;2.57;;;2.37;;
7531;SDS011;3807;49.030;8.714;2022-07-17T05:40:05;2.53;;;1.83;;
7531;SDS011;3807;49.030;8.714;2022-07-17T05:42:31;2.30;;;1.83;;
7531;SDS011;3807;49.030;8.714;2022-07-17T05:44:56;3.13;;;2.63;;
7531;SDS011;3807;49.030;8.714;2022-07-17T05:47:21;3.00;;;1.97;;
7531;SDS011;3807;49.030;8.714;2022-07-17T05:49:47;3.17;;;2.10;;
7531;SDS011;3807;49.030;8.714;2022-07-17T05:52:12;4.67;;;2.40;;
7531;SDS011;3807;49.030;8.714;2022-07-17T05:54:37;2.83;;;2.27;;
7531;SDS011;3807;49.030;8.714;2022-07-17T05:57:03;5.07;;;2.07;;
7531;SDS011;3807;49.030;8.714;2022-07-17T05:59:29;2.37;;;2.17;;
7531;SDS011;3807;49.030;8.714;2022-07-17T06:01:54;3.93;;;2.13;;
7531;SDS011;3807;49.030;8.714;2022-07-17T06:04:19;2.43;;;2.20;;
7531;SDS011;3807;49.030;8.714;2022-07-17T06:06:45;2.80;;;2.07;;
7531;SDS011;3807;49.030;8.714;2022-07-17T06:09:10;4.27;;;1.90;;
7531;SDS011;3807;49.030;8.714;2022-07-17T06:11:35;3.03;;;2.00;;
7531;SDS011;3807;49.030;8.714;2022-07-17T06:14:01;1.90;;;1.70;;
7531;SDS011;3807;49.030;8.714;2022-07-17T06:16:26;2.43;;;1.70;;
7531;SDS011;3807;49.030;8.714;2022-07-17T06:18:52;4.63;;;1.80;;
7531;SDS011;3807;49.030;8.714;2022-07-17T06:21:17;2.77;;;1.90;;
7531;SDS011;3807;49.030;8.714;2022-07-17T06:23:42;3.03;;;1.80;;
7531;SDS011;3807;49.030;8.714;2022-07-17T06:26:08;4.33;;;1.70;;
7531;SDS011;3807;49.030;8.714;2022-07-17T06:28:33;5.33;;;1.87;;
7531;SDS011;3807;49.030;8.714;2022-07-17T06:30:59;2.67;;;1.70;;
7531;SDS011;3807;49.030;8.714;2022-07-17T06:33:24;2.83;;;1.70;;
7531;SDS011;3807;49.030;8.714;2022-07-17T06:35:49;5.03;;;1.83;;
7531;SDS011;3807;49.030;8.714;2022-07-17T06:38:15;1.63;;;1.43;;
7531;SDS011;3807;49.030;8.714;2022-07-17T06:40:40;1.87;;;1.67;;
7531;SDS011;3807;49.030;8.714;2022-07-17T06:43:06;4.93;;;1.93;;
7531;SDS011;3807;49.030;8.714;2022-07-17T06:45:31;1.77;;;1.50;;
7531;SDS011;3807;49.030;8.714;2022-07-17T06:47:57;2.87;;;1.93;;
7531;SDS011;3807;49.030;8.714;2022-07-17T06:50:23;2.10;;;1.57;;
7531;SDS011;3807;49.030;8.714;2022-07-17T06:52:48;3.30;;;1.63;;
7531;SDS011;3807;49.030;8.714;2022-07-17T06:55:13;6.17;;;1.70;;
7531;SDS011;3807;49.030;8.714;2022-07-17T06:57:39;1.50;;;1.40;;
7531;SDS011;3807;49.030;8.714;2022-07-17T07:00:04;3.50;;;1.63;;
7531;SDS011;3807;49.030;8.714;2022-07-17T07:02:30;2.40;;;1.63;;
7531;SDS011;3807;49.030;8.714;2022-07-17T07:04:56;2.87;;;1.60;;
7531;SDS011;3807;49.030;8.714;2022-07-17T07:07:21;2.90;;;1.67;;
7531;SDS011;3807;49.030;8.714;2022-07-17T07:09:46;1.93;;;1.43;;
7531;SDS011;3807;49.030;8.714;2022-07-17T07:12:12;5.20;;;1.70;;
7531;SDS011;3807;49.030;8.714;2022-07-17T07:14:37;3.23;;;1.67;;
7531;SDS011;3807;49.030;8.714;2022-07-17T07:17:02;2.53;;;1.60;;
7531;SDS011;3807;49.030;8.714;2022-07-17T07:19:28;5.23;;;1.83;;
7531;SDS011;3807;49.030;8.714;2022-07-17T07:21:53;1.97;;;1.77;;
7531;SDS011;3807;49.030;8.714;2022-07-17T07:24:18;3.17;;;1.60;;
7531;SDS011;3807;49.030;8.714;2022-07-17T07:26:44;2.00;;;1.30;;
7531;SDS011;3807;49.030;8.714;2022-07-17T07:29:09;3.63;;;1.90;;
7531;SDS011;3807;49.030;8.714;2022-07-17T07:31:35;5.77;;;1.60;;
7531;SDS011;3807;49.030;8.714;2022-07-17T07:34:00;5.40;;;2.20;;
7531;SDS011;3807;49.030;8.714;2022-07-17T07:36:25;4.37;;;1.70;;
7531;SDS011;3807;49.030;8.714;2022-07-17T07:38:52;2.27;;;1.43;;
7531;SDS011;3807;49.030;8.714;2022-07-17T07:41:17;1.47;;;1.23;;
7531;SDS011;3807;49.030;8.714;2022-07-17T07:43:42;1.50;;;1.30;;
7531;SDS011;3807;49.030;8.714;2022-07-17T07:46:08;2.47;;;1.70;;
7531;SDS011;3807;49.030;8.714;2022-07-17T07:48:33;3.17;;;1.70;;
7531;SDS011;3807;49.030;8.714;2022-07-17T07:50:59;4.07;;;1.53;;
7531;SDS011;3807;49.030;8.714;2022-07-17T07:53:24;1.87;;;1.40;;
7531;SDS011;3807;49.030;8.714;2022-07-17T07:55:49;1.87;;;1.30;;
7531;SDS011;3807;49.030;8.714;2022-07-17T07:58:15;5.00;;;1.70;;
7531;SDS011;3807;49.030;8.714;2022-07-17T08:00:42;2.90;;;1.47;;
7531;SDS011;3807;49.030;8.714;2022-07-17T08:03:08;2.73;;;1.70;;
7531;SDS011;3807;49.030;8.714;2022-07-17T08:05:34;2.30;;;1.47;;
7531;SDS011;3807;49.030;8.714;2022-07-17T08:08:01;3.47;;;1.50;;
7531;SDS011;3807;49.030;8.714;2022-07-17T08:10:27;1.60;;;1.50;;
7531;SDS011;3807;49.030;8.714;2022-07-17T08:12:52;2.33;;;1.50;;
7531;SDS011;3807;49.030;8.714;2022-07-17T08:15:18;3.93;;;1.50;;
7531;SDS011;3807;49.030;8.714;2022-07-17T08:17:45;3.23;;;1.40;;
7531;SDS011;3807;49.030;8.714;2022-07-17T08:20:12;4.10;;;1.97;;
7531;SDS011;3807;49.030;8.714;2022-07-17T08:22:38;1.90;;;1.70;;
7531;SDS011;3807;49.030;8.714;2022-07-17T08:25:04;2.90;;;1.70;;
7531;SDS011;3807;49.030;8.714;2022-07-17T08:27:36;2.27;;;1.30;;
7531;SDS011;3807;49.030;8.714;2022-07-17T08:30:06;2.60;;;1.60;;
7531;SDS011;3807;49.030;8.714;2022-07-17T08:32:33;2.50;;;1.40;;
7531;SDS011;3807;49.030;8.714;2022-07-17T08:34:59;3.17;;;1.40;;
7531;SDS011;3807;49.030;8.714;2022-07-17T08:37:24;4.00;;;1.40;;
7531;SDS011;3807;49.030;8.714;2022-07-17T08:39:50;2.57;;;1.87;;
7531;SDS011;3807;49.030;8.714;2022-07-17T08:42:16;4.97;;;1.43;;
7531;SDS011;3807;49.030;8.714;2022-07-17T08:44:42;2.70;;;1.37;;
7531;SDS011;3807;49.030;8.714;2022-07-17T08:47:08;1.90;;;1.50;;
7531;SDS011;3807;49.030;8.714;2022-07-17T08:49:35;1.77;;;1.30;;
7531;SDS011;3807;49.030;8.714;2022-07-17T08:52:08;1.20;;;1.10;;
7531;SDS011;3807;49.030;8.714;2022-07-17T08:54:34;1.57;;;1.30;;
7531;SDS011;3807;49.030;8.714;2022-07-17T08:57:01;3.10;;;1.27;;
7531;SDS011;3807;49.030;8.714;2022-07-17T08:59:27;2.47;;;1.40;;
7531;SDS011;3807;49.030;8.714;2022-07-17T09:01:53;3.77;;;1.70;;
7531;SDS011;3807;49.030;8.714;2022-07-17T09:04:18;2.00;;;1.30;;
7531;SDS011;3807;49.030;8.714;2022-07-17T09:06:43;2.33;;;1.20;;
7531;SDS011;3807;49.030;8.714;2022-07-17T09:09:10;1.30;;;1.13;;
7531;SDS011;3807;49.030;8.714;2022-07-17T09:11:41;3.10;;;1.67;;
7531;SDS011;3807;49.030;8.714;2022-07-17T09:14:08;1.57;;;1.30;;
7531;SDS011;3807;49.030;8.714;2022-07-17T09:16:34;2.80;;;1.33;;
7531;SDS011;3807;49.030;8.714;2022-07-17T09:19:01;5.10;;;1.50;;
7531;SDS011;3807;49.030;8.714;2022-07-17T09:21:27;2.97;;;1.20;;
7531;SDS011;3807;49.030;8.714;2022-07-17T09:24:01;1.40;;;1.30;;
7531;SDS011;3807;49.030;8.714;2022-07-17T09:26:32;4.00;;;1.30;;
7531;SDS011;3807;49.030;8.714;2022-07-17T09:29:00;2.70;;;1.20;;
7531;SDS011;3807;49.030;8.714;2022-07-17T09:31:31;2.50;;;1.47;;
7531;SDS011;3807;49.030;8.714;2022-07-17T09:33:58;2.03;;;1.53;;
7531;SDS011;3807;49.030;8.714;2022-07-17T09:36:24;4.18;;;1.50;;
7531;SDS011;3807;49.030;8.714;2022-07-17T09:38:53;3.23;;;1.30;;
7531;SDS011;3807;49.030;8.714;2022-07-17T09:41:20;5.95;;;1.55;;
7531;SDS011;3807;49.030;8.714;2022-07-17T09:43:48;2.70;;;1.55;;
7531;SDS011;3807;49.030;8.714;2022-07-17T09:46:18;2.50;;;1.50;;
7531;SDS011;3807;49.030;8.714;2022-07-17T09:48:52;7.12;;;1.45;;
7531;SDS011;3807;49.030;8.714;2022-07-17T09:51:25;1.87;;;1.50;;
7531;SDS011;3807;49.030;8.714;2022-07-17T09:53:55;2.25;;;1.40;;
7531;SDS011;3807;49.030;8.714;2022-07-17T09:56:25;1.25;;;1.15;;
7531;SDS011;3807;49.030;8.714;2022-07-17T09:59:05;2.78;;;1.45;;
7531;SDS011;3807;49.030;8.714;2022-07-17T10:01:35;2.12;;;1.40;;
7531;SDS011;3807;49.030;8.714;2022-07-17T10:04:03;1.50;;;1.30;;
7531;SDS011;3807;49.030;8.714;2022-07-17T10:06:29;2.55;;;1.23;;
7531;SDS011;3807;49.030;8.714;2022-07-17T10:08:54;2.30;;;1.70;;
7531;SDS011;3807;49.030;8.714;2022-07-17T10:11:22;1.23;;;1.10;;
7531;SDS011;3807;49.030;8.714;2022-07-17T10:13:49;1.90;;;1.35;;
7531;SDS011;3807;49.030;8.714;2022-07-17T10:16:27;3.35;;;1.30;;
7531;SDS011;3807;49.030;8.714;2022-07-17T10:18:54;4.85;;;1.20;;
7531;SDS011;3807;49.030;8.714;2022-07-17T10:21:22;3.70;;;1.52;;
7531;SDS011;3807;49.030;8.714;2022-07-17T10:24:09;2.62;;;1.42;;
7531;SDS011;3807;49.030;8.714;2022-07-17T10:29:06;2.75;;;1.45;;
7531;SDS011;3807;49.030;8.714;2022-07-17T10:31:33;4.28;;;1.65;;
7531;SDS011;3807;49.030;8.714;2022-07-17T10:41:38;2.75;;;1.10;;
7531;SDS011;3807;49.030;8.714;2022-07-17T10:44:04;1.65;;;1.27;;
7531;SDS011;3807;49.030;8.714;2022-07-17T10:46:29;2.83;;;1.30;;
7531;SDS011;3807;49.030;8.714;2022-07-17T10:48:55;2.00;;;1.30;;
7531;SDS011;3807;49.030;8.714;2022-07-17T10:51:24;2.95;;;1.77;;
7531;SDS011;3807;49.030;8.714;2022-07-17T10:53:49;2.30;;;1.50;;
7531;SDS011;3807;49.030;8.714;2022-07-17T10:56:15;1.33;;;1.20;;
7531;SDS011;3807;49.030;8.714;2022-07-17T10:58:43;1.62;;;1.50;;
7531;SDS011;3807;49.030;8.714;2022-07-17T11:01:10;1.77;;;1.10;;
7531;SDS011;3807;49.030;8.714;2022-07-17T11:08:41;3.03;;;1.15;;
7531;SDS011;3807;49.030;8.714;2022-07-17T11:11:09;1.35;;;1.10;;
7531;SDS011;3807;49.030;8.714;2022-07-17T11:13:34;2.37;;;1.17;;
7531;SDS011;3807;49.030;8.714;2022-07-17T11:16:00;3.33;;;1.30;;
7531;SDS011;3807;49.030;8.714;2022-07-17T11:18:25;1.33;;;1.20;;
7531;SDS011;3807;49.030;8.714;2022-07-17T11:20:52;3.37;;;1.33;;
7531;SDS011;3807;49.030;8.714;2022-07-17T11:23:18;2.58;;;1.00;;
7531;SDS011;3807;49.030;8.714;2022-07-17T11:25:55;2.10;;;1.33;;
7531;SDS011;3807;49.030;8.714;2022-07-17T11:28:28;3.45;;;1.05;;
7531;SDS011;3807;49.030;8.714;2022-07-17T11:33:47;1.20;;;1.10;;
7531;SDS011;3807;49.030;8.714;2022-07-17T11:36:22;4.97;;;1.20;;
7531;SDS011;3807;49.030;8.714;2022-07-17T11:38:49;1.50;;;1.10;;
7531;SDS011;3807;49.030;8.714;2022-07-17T11:41:15;2.30;;;1.10;;
7531;SDS011;3807;49.030;8.714;2022-07-17T11:43:42;4.60;;;1.23;;
7531;SDS011;3807;49.030;8.714;2022-07-17T11:46:08;2.67;;;1.20;;
7531;SDS011;3807;49.030;8.714;2022-07-17T11:48:33;1.40;;;1.10;;
7531;SDS011;3807;49.030;8.714;2022-07-17T11:50:59;1.17;;;1.00;;
7531;SDS011;3807;49.030;8.714;2022-07-17T11:53:32;1.55;;;1.23;;
7531;SDS011;3807;49.030;8.714;2022-07-17T11:55:59;1.87;;;1.20;;
7531;SDS011;3807;49.030;8.714;2022-07-17T11:58:25;3.37;;;2.00;;
7531;SDS011;3807;49.030;8.714;2022-07-17T12:01:03;1.55;;;0.98;;
7531;SDS011;3807;49.030;8.714;2022-07-17T12:03:29;1.40;;;1.20;;
7531;SDS011;3807;49.030;8.714;2022-07-17T12:05:54;1.37;;;1.12;;
7531;SDS011;3807;49.030;8.714;2022-07-17T12:08:20;1.90;;;1.08;;
7531;SDS011;3807;49.030;8.714;2022-07-17T12:10:45;2.17;;;0.98;;
7531;SDS011;3807;49.030;8.714;2022-07-17T12:13:12;1.70;;;1.20;;
7531;SDS011;3807;49.030;8.714;2022-07-17T12:15:41;1.75;;;1.10;;
7531;SDS011;3807;49.030;8.714;2022-07-17T12:18:18;1.50;;;1.10;;
7531;SDS011;3807;49.030;8.714;2022-07-17T12:20:47;1.48;;;1.20;;
7531;SDS011;3807;49.030;8.714;2022-07-17T12:28:36;1.70;;;1.20;;
7531;SDS011;3807;49.030;8.714;2022-07-17T12:31:02;1.00;;;0.90;;
7531;SDS011;3807;49.030;8.714;2022-07-17T12:33:28;1.92;;;0.95;;
7531;SDS011;3807;49.030;8.714;2022-07-17T12:35:53;1.17;;;1.08;;
7531;SDS011;3807;49.030;8.714;2022-07-17T12:38:19;1.10;;;0.80;;
7531;SDS011;3807;49.030;8.714;2022-07-17T12:40:45;1.62;;;1.15;;
7531;SDS011;3807;49.030;8.714;2022-07-17T12:43:10;1.52;;;1.10;;
7531;SDS011;3807;49.030;8.714;2022-07-17T12:45:36;2.35;;;1.10;;
7531;SDS011;3807;49.030;8.714;2022-07-17T12:48:02;2.25;;;1.10;;
7531;SDS011;3807;49.030;8.714;2022-07-17T12:50:27;1.50;;;1.10;;
7531;SDS011;3807;49.030;8.714;2022-07-17T12:52:53;2.70;;;1.45;;
7531;SDS011;3807;49.030;8.714;2022-07-17T12:55:18;1.50;;;1.20;;
7531;SDS011;3807;49.030;8.714;2022-07-17T12:57:43;1.62;;;1.00;;
7531;SDS011;3807;49.030;8.714;2022-07-17T13:00:09;3.72;;;1.00;;
7531;SDS011;3807;49.030;8.714;2022-07-17T13:02:36;2.92;;;1.30;;
7531;SDS011;3807;49.030;8.714;2022-07-17T13:05:01;2.08;;;1.08;;
7531;SDS011;3807;49.030;8.714;2022-07-17T13:07:26;1.23;;;1.00;;
7531;SDS011;3807;49.030;8.714;2022-07-17T13:09:52;1.73;;;0.90;;
7531;SDS011;3807;49.030;8.714;2022-07-17T13:12:18;1.83;;;1.20;;
7531;SDS011;3807;49.030;8.714;2022-07-17T13:14:43;4.20;;;1.20;;
7531;SDS011;3807;49.030;8.714;2022-07-17T13:17:09;1.10;;;1.00;;
7531;SDS011;3807;49.030;8.714;2022-07-17T13:19:34;2.33;;;1.10;;
7531;SDS011;3807;49.030;8.714;2022-07-17T13:22:01;4.55;;;1.05;;
7531;SDS011;3807;49.030;8.714;2022-07-17T13:24:29;1.30;;;1.00;;
7531;SDS011;3807;49.030;8.714;2022-07-17T13:26:55;1.45;;;0.93;;
7531;SDS011;3807;49.030;8.714;2022-07-17T13:29:20;2.75;;;1.17;;
7531;SDS011;3807;49.030;8.714;2022-07-17T13:31:46;1.52;;;1.00;;
7531;SDS011;3807;49.030;8.714;2022-07-17T13:34:11;1.35;;;1.00;;
7531;SDS011;3807;49.030;8.714;2022-07-17T13:36:37;2.70;;;1.20;;
7531;SDS011;3807;49.030;8.714;2022-07-17T13:39:03;2.42;;;1.15;;
7531;SDS011;3807;49.030;8.714;2022-07-17T13:41:29;1.98;;;1.00;;
7531;SDS011;3807;49.030;8.714;2022-07-17T13:43:55;1.52;;;1.00;;
7531;SDS011;3807;49.030;8.714;2022-07-17T13:46:21;1.20;;;0.98;;
7531;SDS011;3807;49.030;8.714;2022-07-17T13:48:46;0.98;;;0.88;;
7531;SDS011;3807;49.030;8.714;2022-07-17T13:51:12;1.10;;;0.93;;
7531;SDS011;3807;49.030;8.714;2022-07-17T13:53:38;1.73;;;0.93;;
7531;SDS011;3807;49.030;8.714;2022-07-17T13:56:03;1.58;;;0.90;;
7531;SDS011;3807;49.030;8.714;2022-07-17T13:58:29;2.37;;;0.90;;
7531;SDS011;3807;49.030;8.714;2022-07-17T14:00:56;3.42;;;0.98;;
7531;SDS011;3807;49.030;8.714;2022-07-17T14:03:21;2.47;;;0.90;;
7531;SDS011;3807;49.030;8.714;2022-07-17T14:05:47;2.97;;;1.00;;
7531;SDS011;3807;49.030;8.714;2022-07-17T14:08:13;3.10;;;1.20;;
7531;SDS011;3807;49.030;8.714;2022-07-17T14:10:38;1.83;;;1.33;;
7531;SDS011;3807;49.030;8.714;2022-07-17T14:13:04;1.35;;;1.00;;
7531;SDS011;3807;49.030;8.714;2022-07-17T14:15:29;2.62;;;1.15;;
7531;SDS011;3807;49.030;8.714;2022-07-17T14:17:54;1.23;;;1.12;;
7531;SDS011;3807;49.030;8.714;2022-07-17T14:20:20;1.65;;;1.25;;
7531;SDS011;3807;49.030;8.714;2022-07-17T14:22:46;1.00;;;0.88;;
7531;SDS011;3807;49.030;8.714;2022-07-17T14:25:11;1.23;;;1.10;;
7531;SDS011;3807;49.030;8.714;2022-07-17T14:27:37;2.60;;;1.00;;
7531;SDS011;3807;49.030;8.714;2022-07-17T14:30:02;3.17;;;1.10;;
7531;SDS011;3807;49.030;8.714;2022-07-17T14:32:28;1.27;;;1.00;;
7531;SDS011;3807;49.030;8.714;2022-07-17T14:34:53;3.72;;;1.27;;
7531;SDS011;3807;49.030;8.714;2022-07-17T14:37:18;1.37;;;0.95;;
7531;SDS011;3807;49.030;8.714;2022-07-17T14:39:44;1.42;;;0.88;;
7531;SDS011;3807;49.030;8.714;2022-07-17T14:42:10;2.15;;;1.12;;
7531;SDS011;3807;49.030;8.714;2022-07-17T14:44:35;1.25;;;1.00;;
7531;SDS011;3807;49.030;8.714;2022-07-17T14:47:01;2.40;;;1.42;;
7531;SDS011;3807;49.030;8.714;2022-07-17T14:49:26;1.77;;;1.20;;
7531;SDS011;3807;49.030;8.714;2022-07-17T14:51:52;1.30;;;1.10;;
7531;SDS011;3807;49.030;8.714;2022-07-17T14:54:17;3.78;;;1.00;;
7531;SDS011;3807;49.030;8.714;2022-07-17T14:56:43;1.23;;;1.10;;
7531;SDS011;3807;49.030;8.714;2022-07-17T14:59:08;2.87;;;1.02;;
7531;SDS011;3807;49.030;8.714;2022-07-17T15:01:34;4.70;;;1.20;;
7531;SDS011;3807;49.030;8.714;2022-07-17T15:03:59;1.60;;;1.15;;
7531;SDS011;3807;49.030;8.714;2022-07-17T15:06:24;2.17;;;1.00;;
7531;SDS011;3807;49.030;8.714;2022-07-17T15:08:50;5.28;;;1.08;;
7531;SDS011;3807;49.030;8.714;2022-07-17T15:11:15;1.00;;;0.93;;
7531;SDS011;3807;49.030;8.714;2022-07-17T15:13:41;6.45;;;1.20;;
7531;SDS011;3807;49.030;8.714;2022-07-17T15:16:06;1.73;;;1.15;;
7531;SDS011;3807;49.030;8.714;2022-07-17T15:18:32;7.05;;;4.22;;
7531;SDS011;3807;49.030;8.714;2022-07-17T15:20:57;2.00;;;1.23;;
7531;SDS011;3807;49.030;8.714;2022-07-17T15:23:23;2.45;;;1.30;;
7531;SDS011;3807;49.030;8.714;2022-07-17T15:25:48;1.90;;;1.10;;
7531;SDS011;3807;49.030;8.714;2022-07-17T15:28:13;3.67;;;1.33;;
7531;SDS011;3807;49.030;8.714;2022-07-17T15:30:39;1.30;;;1.17;;
7531;SDS011;3807;49.030;8.714;2022-07-17T15:33:04;3.95;;;1.20;;